sensor_id;sensor_type;location;lat;lon;timestamp;P1;durP1;ratioP1;P2;durP2;ratioP2
8466;SDS011;4270;48.148;11.648;2023-04-24T00:02:14;1.90;;;1.23;;
8466;SDS011;4270;48.148;11.648;2023-04-24T00:04:39;3.90;;;1.30;;
8466;SDS011;4270;48.148;11.648;2023-04-24T00:07:05;1.20;;;1.07;;
8466;SDS011;4270;48.148;11.648;2023-04-24T00:09:31;1.10;;;1.00;;
8466;SDS011;4270;48.148;11.648;2023-04-24T00:11:57;1.10;;;1.00;;
8466;SDS011;4270;48.148;11.648;2023-04-24T00:14:22;1.60;;;1.00;;
8466;SDS011;4270;48.148;11.648;2023-04-24T00:16:47;1.10;;;1.00;;
8466;SDS011;4270;48.148;11.648;2023-04-24T00:19:12;1.80;;;1.37;;
8466;SDS011;4270;48.148;11.648;2023-04-24T00:21:38;1.37;;;1.00;;
8466;SDS011;4270;48.148;11.648;2023-04-24T00:24:03;1.07;;;0.97;;
8466;SDS011;4270;48.148;11.648;2023-04-24T00:26:28;1.17;;;1.00;;
8466;SDS011;4270;48.148;11.648;2023-04-24T00:28:53;2.30;;;1.33;;
8466;SDS011;4270;48.148;11.648;2023-04-24T00:31:18;3.30;;;1.77;;
8466;SDS011;4270;48.148;11.648;2023-04-24T00:33:44;1.40;;;1.10;;
8466;SDS011;4270;48.148;11.648;2023-04-24T00:36:09;1.57;;;1.27;;
8466;SDS011;4270;48.148;11.648;2023-04-24T00:38:34;1.40;;;1.30;;
8466;SDS011;4270;48.148;11.648;2023-04-24T00:40:59;1.33;;;1.20;;
8466;SDS011;4270;48.148;11.648;2023-04-24T00:43:25;2.17;;;1.10;;
8466;SDS011;4270;48.148;11.648;2023-04-24T00:45:50;1.40;;;1.17;;
8466;SDS011;4270;48.148;11.648;2023-04-24T00:48:15;1.10;;;1.00;;
8466;SDS011;4270;48.148;11.648;2023-04-24T00:50:41;1.07;;;0.97;;
8466;SDS011;4270;48.148;11.648;2023-04-24T00:53:06;1.10;;;1.00;;
8466;SDS011;4270;48.148;11.648;2023-04-24T00:55:31;1.87;;;1.20;;
8466;SDS011;4270;48.148;11.648;2023-04-24T00:57:57;1.60;;;0.97;;
8466;SDS011;4270;48.148;11.648;2023-04-24T01:00:22;1.03;;;0.87;;
8466;SDS011;4270;48.148;11.648;2023-04-24T01:02:48;1.10;;;1.00;;
8466;SDS011;4270;48.148;11.648;2023-04-24T01:05:13;1.97;;;0.90;;
8466;SDS011;4270;48.148;11.648;2023-04-24T01:07:41;0.90;;;0.90;;
8466;SDS011;4270;48.148;11.648;2023-04-24T01:10:09;1.20;;;0.73;;
8466;SDS011;4270;48.148;11.648;2023-04-24T01:12:34;1.63;;;0.90;;
8466;SDS011;4270;48.148;11.648;2023-04-24T01:14:59;3.90;;;0.90;;
8466;SDS011;4270;48.148;11.648;2023-04-24T01:17:25;0.60;;;0.60;;
8466;SDS011;4270;48.148;11.648;2023-04-24T01:19:50;0.67;;;0.67;;
8466;SDS011;4270;48.148;11.648;2023-04-24T01:22:18;0.53;;;0.53;;
8466;SDS011;4270;48.148;11.648;2023-04-24T01:24:43;1.60;;;0.80;;
8466;SDS011;4270;48.148;11.648;2023-04-24T01:27:09;0.97;;;0.70;;
8466;SDS011;4270;48.148;11.648;2023-04-24T01:29:35;2.17;;;1.20;;
8466;SDS011;4270;48.148;11.648;2023-04-24T01:32:00;1.00;;;0.60;;
8466;SDS011;4270;48.148;11.648;2023-04-24T01:34:25;1.80;;;0.60;;
8466;SDS011;4270;48.148;11.648;2023-04-24T01:36:51;1.07;;;0.53;;
8466;SDS011;4270;48.148;11.648;2023-04-24T01:39:16;0.50;;;0.50;;
8466;SDS011;4270;48.148;11.648;2023-04-24T01:41:41;1.63;;;1.00;;
8466;SDS011;4270;48.148;11.648;2023-04-24T01:44:07;1.60;;;0.50;;
8466;SDS011;4270;48.148;11.648;2023-04-24T01:46:32;0.77;;;0.70;;
8466;SDS011;4270;48.148;11.648;2023-04-24T01:48:59;0.87;;;0.70;;
8466;SDS011;4270;48.148;11.648;2023-04-24T01:51:25;0.80;;;0.80;;
8466;SDS011;4270;48.148;11.648;2023-04-24T01:53:50;1.10;;;0.60;;
8466;SDS011;4270;48.148;11.648;2023-04-24T01:56:15;0.70;;;0.70;;
8466;SDS011;4270;48.148;11.648;2023-04-24T01:58:40;1.50;;;0.60;;
8466;SDS011;4270;48.148;11.648;2023-04-24T02:01:06;0.70;;;0.60;;
8466;SDS011;4270;48.148;11.648;2023-04-24T02:03:31;0.60;;;0.60;;
8466;SDS011;4270;48.148;11.648;2023-04-24T02:05:56;0.80;;;0.60;;
8466;SDS011;4270;48.148;11.648;2023-04-24T02:08:21;1.27;;;0.70;;
8466;SDS011;4270;48.148;11.648;2023-04-24T02:10:46;1.20;;;0.80;;
8466;SDS011;4270;48.148;11.648;2023-04-24T02:13:12;1.10;;;0.80;;
8466;SDS011;4270;48.148;11.648;2023-04-24T02:15:37;0.73;;;0.63;;
8466;SDS011;4270;48.148;11.648;2023-04-24T02:18:02;1.38;;;0.60;;
8466;SDS011;4270;48.148;11.648;2023-04-24T02:20:27;0.60;;;0.60;;
8466;SDS011;4270;48.148;11.648;2023-04-24T02:22:52;2.33;;;0.63;;
8466;SDS011;4270;48.148;11.648;2023-04-24T02:25:17;0.60;;;0.50;;
8466;SDS011;4270;48.148;11.648;2023-04-24T02:27:43;0.60;;;0.60;;
8466;SDS011;4270;48.148;11.648;2023-04-24T02:30:09;0.60;;;0.60;;
8466;SDS011;4270;48.148;11.648;2023-04-24T02:32:34;4.20;;;0.90;;
8466;SDS011;4270;48.148;11.648;2023-04-24T02:35:00;0.60;;;0.60;;
8466;SDS011;4270;48.148;11.648;2023-04-24T02:37:26;0.70;;;0.60;;
8466;SDS011;4270;48.148;11.648;2023-04-24T02:39:51;0.60;;;0.60;;
8466;SDS011;4270;48.148;11.648;2023-04-24T02:42:16;1.02;;;0.57;;
8466;SDS011;4270;48.148;11.648;2023-04-24T02:44:41;2.20;;;1.20;;
8466;SDS011;4270;48.148;11.648;2023-04-24T02:47:07;2.30;;;1.23;;
8466;SDS011;4270;48.148;11.648;2023-04-24T02:49:33;0.53;;;0.50;;
8466;SDS011;4270;48.148;11.648;2023-04-24T02:51:58;0.70;;;0.60;;
8466;SDS011;4270;48.148;11.648;2023-04-24T02:54:23;0.60;;;0.60;;
8466;SDS011;4270;48.148;11.648;2023-04-24T02:56:49;1.07;;;0.60;;
8466;SDS011;4270;48.148;11.648;2023-04-24T02:59:14;0.60;;;0.47;;
8466;SDS011;4270;48.148;11.648;2023-04-24T03:01:39;0.70;;;0.50;;
8466;SDS011;4270;48.148;11.648;2023-04-24T03:04:04;0.68;;;0.63;;
8466;SDS011;4270;48.148;11.648;2023-04-24T03:06:30;1.02;;;0.75;;
8466;SDS011;4270;48.148;11.648;2023-04-24T03:08:57;1.00;;;0.57;;
8466;SDS011;4270;48.148;11.648;2023-04-24T03:11:22;0.60;;;0.53;;
8466;SDS011;4270;48.148;11.648;2023-04-24T03:13:47;1.80;;;0.80;;
8466;SDS011;4270;48.148;11.648;2023-04-24T03:16:13;0.73;;;0.73;;
8466;SDS011;4270;48.148;11.648;2023-04-24T03:18:38;1.57;;;0.50;;
8466;SDS011;4270;48.148;11.648;2023-04-24T03:21:03;0.90;;;0.50;;
8466;SDS011;4270;48.148;11.648;2023-04-24T03:23:28;0.57;;;0.50;;
8466;SDS011;4270;48.148;11.648;2023-04-24T03:25:53;1.57;;;0.70;;
8466;SDS011;4270;48.148;11.648;2023-04-24T03:28:19;0.77;;;0.60;;
8466;SDS011;4270;48.148;11.648;2023-04-24T03:30:45;3.53;;;0.70;;
8466;SDS011;4270;48.148;11.648;2023-04-24T03:33:10;0.90;;;0.50;;
8466;SDS011;4270;48.148;11.648;2023-04-24T03:35:35;0.80;;;0.70;;
8466;SDS011;4270;48.148;11.648;2023-04-24T03:38:01;0.97;;;0.73;;
8466;SDS011;4270;48.148;11.648;2023-04-24T03:40:26;2.17;;;0.60;;
8466;SDS011;4270;48.148;11.648;2023-04-24T03:42:52;0.80;;;0.60;;
8466;SDS011;4270;48.148;11.648;2023-04-24T03:45:17;1.33;;;1.00;;
8466;SDS011;4270;48.148;11.648;2023-04-24T03:47:42;1.20;;;0.67;;
8466;SDS011;4270;48.148;11.648;2023-04-24T03:50:07;0.93;;;0.73;;
8466;SDS011;4270;48.148;11.648;2023-04-24T03:52:32;0.80;;;0.67;;
8466;SDS011;4270;48.148;11.648;2023-04-24T03:54:58;0.50;;;0.50;;
8466;SDS011;4270;48.148;11.648;2023-04-24T03:57:23;0.83;;;0.70;;
8466;SDS011;4270;48.148;11.648;2023-04-24T03:59:48;1.50;;;0.88;;
8466;SDS011;4270;48.148;11.648;2023-04-24T04:02:13;1.47;;;1.07;;
8466;SDS011;4270;48.148;11.648;2023-04-24T04:04:38;1.98;;;1.00;;
8466;SDS011;4270;48.148;11.648;2023-04-24T04:07:03;1.27;;;0.80;;
8466;SDS011;4270;48.148;11.648;2023-04-24T04:09:30;0.60;;;0.60;;
8466;SDS011;4270;48.148;11.648;2023-04-24T04:11:55;0.60;;;0.60;;
8466;SDS011;4270;48.148;11.648;2023-04-24T04:14:21;1.00;;;0.90;;
8466;SDS011;4270;48.148;11.648;2023-04-24T04:16:46;1.37;;;0.80;;
8466;SDS011;4270;48.148;11.648;2023-04-24T04:19:11;0.87;;;0.60;;
8466;SDS011;4270;48.148;11.648;2023-04-24T04:21:36;1.25;;;0.85;;
8466;SDS011;4270;48.148;11.648;2023-04-24T04:24:01;1.95;;;0.77;;
8466;SDS011;4270;48.148;11.648;2023-04-24T04:26:26;0.80;;;0.80;;
8466;SDS011;4270;48.148;11.648;2023-04-24T04:28:52;1.50;;;0.63;;
8466;SDS011;4270;48.148;11.648;2023-04-24T04:31:19;0.73;;;0.70;;
8466;SDS011;4270;48.148;11.648;2023-04-24T04:33:44;1.43;;;0.70;;
8466;SDS011;4270;48.148;11.648;2023-04-24T04:36:09;2.50;;;1.00;;
8466;SDS011;4270;48.148;11.648;2023-04-24T04:38:35;0.90;;;0.67;;
8466;SDS011;4270;48.148;11.648;2023-04-24T04:41:00;0.70;;;0.70;;
8466;SDS011;4270;48.148;11.648;2023-04-24T04:43:25;1.83;;;0.90;;
8466;SDS011;4270;48.148;11.648;2023-04-24T04:45:51;0.97;;;0.60;;
8466;SDS011;4270;48.148;11.648;2023-04-24T04:48:16;1.07;;;0.90;;
8466;SDS011;4270;48.148;11.648;2023-04-24T04:50:42;0.70;;;0.60;;
8466;SDS011;4270;48.148;11.648;2023-04-24T04:53:07;1.67;;;0.73;;
8466;SDS011;4270;48.148;11.648;2023-04-24T04:55:32;0.60;;;0.57;;
8466;SDS011;4270;48.148;11.648;2023-04-24T04:57:57;0.60;;;0.57;;
8466;SDS011;4270;48.148;11.648;2023-04-24T05:00:23;0.77;;;0.60;;
8466;SDS011;4270;48.148;11.648;2023-04-24T05:02:52;1.70;;;0.70;;
8466;SDS011;4270;48.148;11.648;2023-04-24T05:05:17;0.67;;;0.67;;
8466;SDS011;4270;48.148;11.648;2023-04-24T05:07:43;2.20;;;0.93;;
8466;SDS011;4270;48.148;11.648;2023-04-24T05:10:08;0.63;;;0.63;;
8466;SDS011;4270;48.148;11.648;2023-04-24T05:12:33;2.30;;;0.60;;
8466;SDS011;4270;48.148;11.648;2023-04-24T05:14:58;2.05;;;0.75;;
8466;SDS011;4270;48.148;11.648;2023-04-24T05:17:23;1.20;;;0.60;;
8466;SDS011;4270;48.148;11.648;2023-04-24T05:19:49;1.00;;;0.63;;
8466;SDS011;4270;48.148;11.648;2023-04-24T05:22:14;1.73;;;0.90;;
8466;SDS011;4270;48.148;11.648;2023-04-24T05:24:39;2.10;;;0.60;;
8466;SDS011;4270;48.148;11.648;2023-04-24T05:27:04;0.60;;;0.50;;
8466;SDS011;4270;48.148;11.648;2023-04-24T05:29:30;0.93;;;0.60;;
8466;SDS011;4270;48.148;11.648;2023-04-24T05:31:56;0.97;;;0.60;;
8466;SDS011;4270;48.148;11.648;2023-04-24T05:34:21;5.57;;;0.70;;
8466;SDS011;4270;48.148;11.648;2023-04-24T05:36:46;0.70;;;0.60;;
8466;SDS011;4270;48.148;11.648;2023-04-24T05:39:11;0.80;;;0.60;;
8466;SDS011;4270;48.148;11.648;2023-04-24T05:41:37;1.10;;;0.70;;
8466;SDS011;4270;48.148;11.648;2023-04-24T05:44:02;0.88;;;0.50;;
8466;SDS011;4270;48.148;11.648;2023-04-24T05:46:27;1.03;;;0.60;;
8466;SDS011;4270;48.148;11.648;2023-04-24T05:48:52;0.80;;;0.57;;
8466;SDS011;4270;48.148;11.648;2023-04-24T05:51:17;0.60;;;0.60;;
8466;SDS011;4270;48.148;11.648;2023-04-24T05:53:42;0.90;;;0.60;;
8466;SDS011;4270;48.148;11.648;2023-04-24T05:56:08;1.23;;;0.67;;
8466;SDS011;4270;48.148;11.648;2023-04-24T05:58:33;2.60;;;0.50;;
8466;SDS011;4270;48.148;11.648;2023-04-24T06:00:58;2.50;;;0.70;;
8466;SDS011;4270;48.148;11.648;2023-04-24T06:03:25;1.87;;;0.67;;
8466;SDS011;4270;48.148;11.648;2023-04-24T06:05:52;0.83;;;0.60;;
8466;SDS011;4270;48.148;11.648;2023-04-24T06:08:17;1.20;;;0.60;;
8466;SDS011;4270;48.148;11.648;2023-04-24T06:10:42;1.40;;;0.63;;
8466;SDS011;4270;48.148;11.648;2023-04-24T06:13:07;0.90;;;0.70;;
8466;SDS011;4270;48.148;11.648;2023-04-24T06:15:33;0.98;;;0.55;;
8466;SDS011;4270;48.148;11.648;2023-04-24T06:17:58;1.33;;;0.93;;
8466;SDS011;4270;48.148;11.648;2023-04-24T06:20:23;0.43;;;0.43;;
8466;SDS011;4270;48.148;11.648;2023-04-24T06:22:49;1.27;;;0.40;;
8466;SDS011;4270;48.148;11.648;2023-04-24T06:25:14;0.53;;;0.53;;
8466;SDS011;4270;48.148;11.648;2023-04-24T06:27:39;2.93;;;0.60;;
8466;SDS011;4270;48.148;11.648;2023-04-24T06:30:05;0.60;;;0.60;;
8466;SDS011;4270;48.148;11.648;2023-04-24T06:32:31;1.40;;;0.50;;
8466;SDS011;4270;48.148;11.648;2023-04-24T06:34:56;0.77;;;0.50;;
8466;SDS011;4270;48.148;11.648;2023-04-24T06:37:21;0.87;;;0.60;;
8466;SDS011;4270;48.148;11.648;2023-04-24T06:39:46;0.97;;;0.57;;
8466;SDS011;4270;48.148;11.648;2023-04-24T06:42:12;1.13;;;0.50;;
8466;SDS011;4270;48.148;11.648;2023-04-24T06:44:37;0.40;;;0.40;;
8466;SDS011;4270;48.148;11.648;2023-04-24T06:47:06;1.70;;;0.50;;
8466;SDS011;4270;48.148;11.648;2023-04-24T06:49:31;0.60;;;0.50;;
8466;SDS011;4270;48.148;11.648;2023-04-24T06:51:56;0.87;;;0.77;;
8466;SDS011;4270;48.148;11.648;2023-04-24T06:54:21;1.20;;;0.80;;
8466;SDS011;4270;48.148;11.648;2023-04-24T06:56:46;1.50;;;0.70;;
8466;SDS011;4270;48.148;11.648;2023-04-24T06:59:12;1.07;;;0.50;;
8466;SDS011;4270;48.148;11.648;2023-04-24T07:01:37;1.03;;;0.70;;
8466;SDS011;4270;48.148;11.648;2023-04-24T07:04:03;0.60;;;0.50;;
8466;SDS011;4270;48.148;11.648;2023-04-24T07:06:28;3.03;;;0.50;;
8466;SDS011;4270;48.148;11.648;2023-04-24T07:08:55;0.40;;;0.40;;
8466;SDS011;4270;48.148;11.648;2023-04-24T07:11:20;1.33;;;0.50;;
8466;SDS011;4270;48.148;11.648;2023-04-24T07:13:47;3.60;;;0.60;;
8466;SDS011;4270;48.148;11.648;2023-04-24T07:16:12;0.93;;;0.40;;
8466;SDS011;4270;48.148;11.648;2023-04-24T07:18:37;1.20;;;0.50;;
8466;SDS011;4270;48.148;11.648;2023-04-24T07:21:04;0.50;;;0.40;;
8466;SDS011;4270;48.148;11.648;2023-04-24T07:23:29;0.50;;;0.50;;
8466;SDS011;4270;48.148;11.648;2023-04-24T07:25:56;0.70;;;0.53;;
8466;SDS011;4270;48.148;11.648;2023-04-24T07:28:21;1.27;;;0.47;;
8466;SDS011;4270;48.148;11.648;2023-04-24T07:30:46;1.53;;;0.53;;
8466;SDS011;4270;48.148;11.648;2023-04-24T07:33:11;0.40;;;0.40;;
8466;SDS011;4270;48.148;11.648;2023-04-24T07:35:38;0.50;;;0.50;;
8466;SDS011;4270;48.148;11.648;2023-04-24T07:38:03;1.80;;;0.60;;
8466;SDS011;4270;48.148;11.648;2023-04-24T07:40:28;0.70;;;0.67;;
8466;SDS011;4270;48.148;11.648;2023-04-24T07:42:53;0.83;;;0.40;;
8466;SDS011;4270;48.148;11.648;2023-04-24T07:45:18;1.25;;;0.60;;
8466;SDS011;4270;48.148;11.648;2023-04-24T07:47:44;22.03;;;1.20;;
8466;SDS011;4270;48.148;11.648;2023-04-24T07:50:10;0.77;;;0.43;;
8466;SDS011;4270;48.148;11.648;2023-04-24T07:52:36;0.67;;;0.50;;
8466;SDS011;4270;48.148;11.648;2023-04-24T07:55:01;2.17;;;0.50;;
8466;SDS011;4270;48.148;11.648;2023-04-24T07:57:27;1.70;;;0.60;;
8466;SDS011;4270;48.148;11.648;2023-04-24T07:59:52;0.87;;;0.50;;
8466;SDS011;4270;48.148;11.648;2023-04-24T08:02:17;0.50;;;0.50;;
8466;SDS011;4270;48.148;11.648;2023-04-24T08:04:43;0.70;;;0.50;;
8466;SDS011;4270;48.148;11.648;2023-04-24T08:07:08;0.60;;;0.50;;
8466;SDS011;4270;48.148;11.648;2023-04-24T08:09:33;0.50;;;0.40;;
8466;SDS011;4270;48.148;11.648;2023-04-24T08:11:58;0.67;;;0.60;;
8466;SDS011;4270;48.148;11.648;2023-04-24T08:14:23;0.60;;;0.50;;
8466;SDS011;4270;48.148;11.648;2023-04-24T08:16:49;1.83;;;0.60;;
8466;SDS011;4270;48.148;11.648;2023-04-24T08:19:14;0.60;;;0.50;;
8466;SDS011;4270;48.148;11.648;2023-04-24T08:21:39;0.60;;;0.60;;
8466;SDS011;4270;48.148;11.648;2023-04-24T08:24:04;0.97;;;0.50;;
8466;SDS011;4270;48.148;11.648;2023-04-24T08:26:32;2.10;;;0.37;;
8466;SDS011;4270;48.148;11.648;2023-04-24T08:28:57;0.97;;;0.50;;
8466;SDS011;4270;48.148;11.648;2023-04-24T08:31:22;0.40;;;0.40;;
8466;SDS011;4270;48.148;11.648;2023-04-24T08:33:49;0.60;;;0.53;;
8466;SDS011;4270;48.148;11.648;2023-04-24T08:36:15;0.70;;;0.60;;
8466;SDS011;4270;48.148;11.648;2023-04-24T08:38:40;0.53;;;0.53;;
8466;SDS011;4270;48.148;11.648;2023-04-24T08:41:05;1.00;;;0.50;;
8466;SDS011;4270;48.148;11.648;2023-04-24T08:43:31;3.53;;;0.60;;
8466;SDS011;4270;48.148;11.648;2023-04-24T08:45:57;0.50;;;0.50;;
8466;SDS011;4270;48.148;11.648;2023-04-24T08:48:24;0.83;;;0.50;;
8466;SDS011;4270;48.148;11.648;2023-04-24T08:50:52;1.00;;;0.90;;
8466;SDS011;4270;48.148;11.648;2023-04-24T08:53:18;0.70;;;0.70;;
8466;SDS011;4270;48.148;11.648;2023-04-24T08:55:45;4.27;;;1.30;;
8466;SDS011;4270;48.148;11.648;2023-04-24T08:58:11;1.23;;;0.80;;
8466;SDS011;4270;48.148;11.648;2023-04-24T09:00:37;2.73;;;0.90;;
8466;SDS011;4270;48.148;11.648;2023-04-24T09:03:03;1.27;;;0.80;;
8466;SDS011;4270;48.148;11.648;2023-04-24T09:05:30;1.70;;;0.70;;
8466;SDS011;4270;48.148;11.648;2023-04-24T09:07:56;1.00;;;0.90;;
8466;SDS011;4270;48.148;11.648;2023-04-24T09:10:22;2.00;;;1.10;;
8466;SDS011;4270;48.148;11.648;2023-04-24T09:12:48;1.60;;;0.90;;
8466;SDS011;4270;48.148;11.648;2023-04-24T09:15:14;1.20;;;1.00;;
8466;SDS011;4270;48.148;11.648;2023-04-24T09:17:40;0.90;;;0.90;;
8466;SDS011;4270;48.148;11.648;2023-04-24T09:20:05;2.47;;;1.27;;
8466;SDS011;4270;48.148;11.648;2023-04-24T09:22:30;2.20;;;1.10;;
8466;SDS011;4270;48.148;11.648;2023-04-24T09:25:05;1.70;;;1.00;;
8466;SDS011;4270;48.148;11.648;2023-04-24T09:27:31;0.80;;;0.80;;
8466;SDS011;4270;48.148;11.648;2023-04-24T09:29:57;1.77;;;1.00;;
8466;SDS011;4270;48.148;11.648;2023-04-24T09:32:23;4.30;;;1.03;;
8466;SDS011;4270;48.148;11.648;2023-04-24T09:35:04;2.10;;;1.60;;
8466;SDS011;4270;48.148;11.648;2023-04-24T09:37:34;1.23;;;1.13;;
8466;SDS011;4270;48.148;11.648;2023-04-24T09:40:09;1.13;;;0.97;;
8466;SDS011;4270;48.148;11.648;2023-04-24T09:42:36;2.00;;;1.33;;
8466;SDS011;4270;48.148;11.648;2023-04-24T09:45:01;1.20;;;0.80;;
8466;SDS011;4270;48.148;11.648;2023-04-24T09:47:27;2.30;;;1.00;;
8466;SDS011;4270;48.148;11.648;2023-04-24T09:49:53;1.58;;;1.02;;
8466;SDS011;4270;48.148;11.648;2023-04-24T09:52:22;1.20;;;1.03;;
8466;SDS011;4270;48.148;11.648;2023-04-24T09:54:52;1.50;;;1.40;;
8466;SDS011;4270;48.148;11.648;2023-04-24T09:57:17;2.10;;;1.13;;
8466;SDS011;4270;48.148;11.648;2023-04-24T09:59:43;1.40;;;1.00;;
8466;SDS011;4270;48.148;11.648;2023-04-24T10:02:17;2.43;;;1.60;;
8466;SDS011;4270;48.148;11.648;2023-04-24T10:04:53;2.33;;;1.20;;
8466;SDS011;4270;48.148;11.648;2023-04-24T10:07:19;2.20;;;1.10;;
8466;SDS011;4270;48.148;11.648;2023-04-24T10:09:44;2.10;;;1.53;;
8466;SDS011;4270;48.148;11.648;2023-04-24T10:12:09;1.80;;;1.40;;
8466;SDS011;4270;48.148;11.648;2023-04-24T10:14:35;1.60;;;1.50;;
8466;SDS011;4270;48.148;11.648;2023-04-24T10:17:01;1.70;;;1.20;;
8466;SDS011;4270;48.148;11.648;2023-04-24T10:19:26;1.80;;;1.00;;
8466;SDS011;4270;48.148;11.648;2023-04-24T10:21:51;1.20;;;1.10;;
8466;SDS011;4270;48.148;11.648;2023-04-24T10:24:17;1.20;;;1.10;;
8466;SDS011;4270;48.148;11.648;2023-04-24T10:26:43;1.10;;;1.10;;
8466;SDS011;4270;48.148;11.648;2023-04-24T10:29:10;1.20;;;1.03;;
8466;SDS011;4270;48.148;11.648;2023-04-24T10:31:37;1.30;;;1.20;;
8466;SDS011;4270;48.148;11.648;2023-04-24T10:34:03;1.27;;;1.03;;
8466;SDS011;4270;48.148;11.648;2023-04-24T10:36:29;2.60;;;1.53;;
8466;SDS011;4270;48.148;11.648;2023-04-24T10:38:57;1.33;;;1.00;;
8466;SDS011;4270;48.148;11.648;2023-04-24T10:41:24;3.03;;;1.23;;
8466;SDS011;4270;48.148;11.648;2023-04-24T10:44:09;1.20;;;1.00;;
8466;SDS011;4270;48.148;11.648;2023-04-24T10:46:35;1.20;;;1.10;;
8466;SDS011;4270;48.148;11.648;2023-04-24T10:49:03;1.20;;;1.10;;
8466;SDS011;4270;48.148;11.648;2023-04-24T10:51:50;2.07;;;1.47;;
8466;SDS011;4270;48.148;11.648;2023-04-24T10:56:46;2.13;;;1.10;;
8466;SDS011;4270;48.148;11.648;2023-04-24T10:59:12;1.10;;;1.10;;
8466;SDS011;4270;48.148;11.648;2023-04-24T11:01:52;1.43;;;1.20;;
8466;SDS011;4270;48.148;11.648;2023-04-24T11:04:21;4.90;;;1.07;;
8466;SDS011;4270;48.148;11.648;2023-04-24T11:06:53;4.77;;;1.10;;
8466;SDS011;4270;48.148;11.648;2023-04-24T11:09:19;1.10;;;1.00;;
8466;SDS011;4270;48.148;11.648;2023-04-24T11:11:46;1.03;;;0.80;;
8466;SDS011;4270;48.148;11.648;2023-04-24T11:14:13;2.40;;;1.03;;
8466;SDS011;4270;48.148;11.648;2023-04-24T11:16:50;4.53;;;1.20;;
8466;SDS011;4270;48.148;11.648;2023-04-24T11:21:57;0.90;;;0.90;;
8466;SDS011;4270;48.148;11.648;2023-04-24T11:26:51;1.50;;;1.00;;
8466;SDS011;4270;48.148;11.648;2023-04-24T11:29:17;1.10;;;0.80;;
8466;SDS011;4270;48.148;11.648;2023-04-24T11:31:44;1.27;;;1.10;;
8466;SDS011;4270;48.148;11.648;2023-04-24T11:34:14;1.70;;;0.97;;
8466;SDS011;4270;48.148;11.648;2023-04-24T11:36:45;1.10;;;1.00;;
8466;SDS011;4270;48.148;11.648;2023-04-24T11:39:10;1.23;;;1.10;;
8466;SDS011;4270;48.148;11.648;2023-04-24T11:41:36;1.30;;;1.20;;
8466;SDS011;4270;48.148;11.648;2023-04-24T11:44:01;1.50;;;1.10;;
8466;SDS011;4270;48.148;11.648;2023-04-24T11:46:28;1.40;;;1.30;;
8466;SDS011;4270;48.148;11.648;2023-04-24T11:48:53;2.60;;;1.10;;
8466;SDS011;4270;48.148;11.648;2023-04-24T11:51:19;1.43;;;1.00;;
8466;SDS011;4270;48.148;11.648;2023-04-24T11:53:44;3.13;;;1.53;;
8466;SDS011;4270;48.148;11.648;2023-04-24T11:56:09;2.60;;;0.70;;
8466;SDS011;4270;48.148;11.648;2023-04-24T11:58:35;1.40;;;1.00;;
8466;SDS011;4270;48.148;11.648;2023-04-24T12:01:01;0.83;;;0.83;;
8466;SDS011;4270;48.148;11.648;2023-04-24T12:03:26;1.87;;;1.00;;
8466;SDS011;4270;48.148;11.648;2023-04-24T12:05:51;2.20;;;0.93;;
8466;SDS011;4270;48.148;11.648;2023-04-24T12:08:29;1.33;;;1.00;;
8466;SDS011;4270;48.148;11.648;2023-04-24T12:10:54;1.17;;;1.07;;
8466;SDS011;4270;48.148;11.648;2023-04-24T12:13:19;2.23;;;1.00;;
8466;SDS011;4270;48.148;11.648;2023-04-24T12:15:45;0.90;;;0.90;;
8466;SDS011;4270;48.148;11.648;2023-04-24T12:18:11;1.57;;;1.40;;
8466;SDS011;4270;48.148;11.648;2023-04-24T12:20:37;1.80;;;0.90;;
8466;SDS011;4270;48.148;11.648;2023-04-24T12:23:02;0.80;;;0.80;;
8466;SDS011;4270;48.148;11.648;2023-04-24T12:25:29;1.00;;;1.00;;
8466;SDS011;4270;48.148;11.648;2023-04-24T12:27:55;1.33;;;1.23;;
8466;SDS011;4270;48.148;11.648;2023-04-24T12:30:20;1.30;;;1.00;;
8466;SDS011;4270;48.148;11.648;2023-04-24T12:32:47;1.10;;;0.97;;
8466;SDS011;4270;48.148;11.648;2023-04-24T12:35:12;3.13;;;1.20;;
8466;SDS011;4270;48.148;11.648;2023-04-24T12:37:38;1.27;;;1.17;;
8466;SDS011;4270;48.148;11.648;2023-04-24T12:40:08;1.60;;;1.20;;
8466;SDS011;4270;48.148;11.648;2023-04-24T12:42:34;1.97;;;1.10;;
8466;SDS011;4270;48.148;11.648;2023-04-24T12:45:00;1.10;;;1.00;;
8466;SDS011;4270;48.148;11.648;2023-04-24T12:47:26;1.60;;;1.07;;
8466;SDS011;4270;48.148;11.648;2023-04-24T12:49:52;2.60;;;1.30;;
8466;SDS011;4270;48.148;11.648;2023-04-24T12:52:18;1.27;;;1.17;;
8466;SDS011;4270;48.148;11.648;2023-04-24T12:54:44;1.20;;;1.10;;
8466;SDS011;4270;48.148;11.648;2023-04-24T12:57:10;1.00;;;0.93;;
8466;SDS011;4270;48.148;11.648;2023-04-24T12:59:35;1.83;;;1.10;;
8466;SDS011;4270;48.148;11.648;2023-04-24T13:02:00;1.80;;;1.10;;
8466;SDS011;4270;48.148;11.648;2023-04-24T13:04:25;1.13;;;1.03;;
8466;SDS011;4270;48.148;11.648;2023-04-24T13:06:50;1.03;;;0.80;;
8466;SDS011;4270;48.148;11.648;2023-04-24T13:09:15;2.43;;;0.90;;
8466;SDS011;4270;48.148;11.648;2023-04-24T13:11:41;1.33;;;0.90;;
8466;SDS011;4270;48.148;11.648;2023-04-24T13:14:06;3.30;;;0.90;;
8466;SDS011;4270;48.148;11.648;2023-04-24T13:16:31;1.77;;;1.33;;
8466;SDS011;4270;48.148;11.648;2023-04-24T13:18:56;1.30;;;1.03;;
8466;SDS011;4270;48.148;11.648;2023-04-24T13:21:21;1.75;;;1.30;;
8466;SDS011;4270;48.148;11.648;2023-04-24T13:23:46;3.57;;;1.17;;
8466;SDS011;4270;48.148;11.648;2023-04-24T13:26:12;1.20;;;1.10;;
8466;SDS011;4270;48.148;11.648;2023-04-24T13:28:37;3.20;;;1.60;;
8466;SDS011;4270;48.148;11.648;2023-04-24T13:31:03;1.47;;;1.10;;
8466;SDS011;4270;48.148;11.648;2023-04-24T13:33:28;1.70;;;1.60;;
8466;SDS011;4270;48.148;11.648;2023-04-24T13:35:53;1.77;;;1.50;;
8466;SDS011;4270;48.148;11.648;2023-04-24T13:38:19;2.10;;;1.30;;
8466;SDS011;4270;48.148;11.648;2023-04-24T13:40:46;1.73;;;1.63;;
8466;SDS011;4270;48.148;11.648;2023-04-24T13:43:11;2.73;;;1.30;;
8466;SDS011;4270;48.148;11.648;2023-04-24T13:45:36;1.40;;;1.30;;
8466;SDS011;4270;48.148;11.648;2023-04-24T13:48:02;1.40;;;1.20;;
8466;SDS011;4270;48.148;11.648;2023-04-24T13:50:28;2.20;;;1.37;;
8466;SDS011;4270;48.148;11.648;2023-04-24T13:52:53;2.83;;;1.15;;
8466;SDS011;4270;48.148;11.648;2023-04-24T13:55:19;3.07;;;1.57;;
8466;SDS011;4270;48.148;11.648;2023-04-24T13:57:44;2.97;;;1.40;;
8466;SDS011;4270;48.148;11.648;2023-04-24T14:00:09;1.83;;;1.23;;
8466;SDS011;4270;48.148;11.648;2023-04-24T14:02:36;1.50;;;1.40;;
8466;SDS011;4270;48.148;11.648;2023-04-24T14:05:01;1.33;;;1.23;;
8466;SDS011;4270;48.148;11.648;2023-04-24T14:07:28;1.40;;;1.30;;
8466;SDS011;4270;48.148;11.648;2023-04-24T14:09:53;1.67;;;1.17;;
8466;SDS011;4270;48.148;11.648;2023-04-24T14:12:18;2.10;;;1.40;;
8466;SDS011;4270;48.148;11.648;2023-04-24T14:14:44;2.10;;;1.40;;
8466;SDS011;4270;48.148;11.648;2023-04-24T14:17:10;2.60;;;1.33;;
8466;SDS011;4270;48.148;11.648;2023-04-24T14:19:35;2.43;;;1.50;;
8466;SDS011;4270;48.148;11.648;2023-04-24T14:22:01;2.65;;;1.48;;
8466;SDS011;4270;48.148;11.648;2023-04-24T14:24:26;2.03;;;1.30;;
8466;SDS011;4270;48.148;11.648;2023-04-24T14:26:51;3.42;;;1.30;;
8466;SDS011;4270;48.148;11.648;2023-04-24T14:29:16;1.70;;;1.20;;
8466;SDS011;4270;48.148;11.648;2023-04-24T14:31:42;2.03;;;1.30;;
8466;SDS011;4270;48.148;11.648;2023-04-24T14:34:07;1.73;;;1.30;;
8466;SDS011;4270;48.148;11.648;2023-04-24T14:36:32;1.50;;;1.40;;
8466;SDS011;4270;48.148;11.648;2023-04-24T14:38:57;1.60;;;1.43;;
8466;SDS011;4270;48.148;11.648;2023-04-24T14:41:23;1.47;;;1.37;;
8466;SDS011;4270;48.148;11.648;2023-04-24T14:43:48;2.77;;;1.70;;
8466;SDS011;4270;48.148;11.648;2023-04-24T14:46:13;1.30;;;1.20;;
8466;SDS011;4270;48.148;11.648;2023-04-24T14:48:38;1.57;;;1.30;;
8466;SDS011;4270;48.148;11.648;2023-04-24T14:51:03;2.60;;;1.20;;
8466;SDS011;4270;48.148;11.648;2023-04-24T14:53:28;2.70;;;1.30;;
8466;SDS011;4270;48.148;11.648;2023-04-24T14:55:54;1.57;;;1.47;;
8466;SDS011;4270;48.148;11.648;2023-04-24T14:58:19;1.97;;;1.67;;
8466;SDS011;4270;48.148;11.648;2023-04-24T15:00:45;1.50;;;1.37;;